sensor_id;sensor_type;location;lat;lon;timestamp;pressure;altitude;pressure_sealevel;temperature;humidity
9746;BME280;4912;50.836;12.958;2022-08-19T00:00:30;97182.50;;;22.71;89.30
9746;BME280;4912;50.836;12.958;2022-08-19T00:03:00;97171.22;;;22.71;89.36
9746;BME280;4912;50.836;12.958;2022-08-19T00:05:31;97171.47;;;22.73;89.28
9746;BME280;4912;50.836;12.958;2022-08-19T00:08:01;97168.06;;;22.75;89.24
9746;BME280;4912;50.836;12.958;2022-08-19T00:10:35;97168.44;;;22.79;88.93
9746;BME280;4912;50.836;12.958;2022-08-19T00:13:05;97165.97;;;22.75;88.96
9746;BME280;4912;50.836;12.958;2022-08-19T00:15:36;97166.16;;;22.70;89.75
9746;BME280;4912;50.836;12.958;2022-08-19T00:18:06;97170.47;;;22.63;90.25
9746;BME280;4912;50.836;12.958;2022-08-19T00:20:37;97166.75;;;22.61;90.58
9746;BME280;4912;50.836;12.958;2022-08-19T00:23:07;97159.03;;;22.61;90.12
9746;BME280;4912;50.836;12.958;2022-08-19T00:25:40;97164.88;;;22.56;90.77
9746;BME280;4912;50.836;12.958;2022-08-19T00:28:14;97156.97;;;22.46;91.90
9746;BME280;4912;50.836;12.958;2022-08-19T00:30:44;97157.34;;;22.35;92.47
9746;BME280;4912;50.836;12.958;2022-08-19T00:33:16;97163.53;;;22.41;92.23
9746;BME280;4912;50.836;12.958;2022-08-19T00:35:46;97163.91;;;22.45;92.20
9746;BME280;4912;50.836;12.958;2022-08-19T00:38:22;97165.06;;;22.42;92.26
9746;BME280;4912;50.836;12.958;2022-08-19T00:41:06;97172.00;;;22.49;92.34
9746;BME280;4912;50.836;12.958;2022-08-19T00:43:37;97166.56;;;22.43;93.13
9746;BME280;4912;50.836;12.958;2022-08-19T00:46:08;97153.38;;;22.38;93.60
9746;BME280;4912;50.836;12.958;2022-08-19T00:48:38;97152.28;;;22.49;93.61
9746;BME280;4912;50.836;12.958;2022-08-19T00:51:08;97144.00;;;22.51;93.66
9746;BME280;4912;50.836;12.958;2022-08-19T00:53:38;97139.28;;;22.54;93.46
9746;BME280;4912;50.836;12.958;2022-08-19T00:56:13;97137.97;;;22.55;93.65
9746;BME280;4912;50.836;12.958;2022-08-19T00:58:44;97137.97;;;22.55;93.75
9746;BME280;4912;50.836;12.958;2022-08-19T01:01:14;97139.50;;;22.48;94.36
9746;BME280;4912;50.836;12.958;2022-08-19T01:03:44;97137.41;;;22.56;93.76
9746;BME280;4912;50.836;12.958;2022-08-19T01:06:25;97149.44;;;22.57;94.12
9746;BME280;4912;50.836;12.958;2022-08-19T01:08:58;97146.44;;;22.47;95.18
9746;BME280;4912;50.836;12.958;2022-08-19T01:11:34;97152.84;;;22.48;94.92
9746;BME280;4912;50.836;12.958;2022-08-19T01:14:07;97150.56;;;22.54;94.61
9746;BME280;4912;50.836;12.958;2022-08-19T01:16:39;97151.31;;;22.54;94.59
9746;BME280;4912;50.836;12.958;2022-08-19T01:19:20;97163.38;;;22.55;94.57
9746;BME280;4912;50.836;12.958;2022-08-19T01:21:59;97157.72;;;22.55;94.15
9746;BME280;4912;50.836;12.958;2022-08-19T01:24:43;97159.22;;;22.56;94.20
9746;BME280;4912;50.836;12.958;2022-08-19T01:27:19;97153.94;;;22.60;93.58
9746;BME280;4912;50.836;12.958;2022-08-19T01:29:50;97147.38;;;22.65;93.22
9746;BME280;4912;50.836;12.958;2022-08-19T01:32:21;97143.44;;;22.68;93.14
9746;BME280;4912;50.836;12.958;2022-08-19T01:35:00;97147.91;;;22.71;93.33
9746;BME280;4912;50.836;12.958;2022-08-19T01:37:41;97147.16;;;22.70;93.15
9746;BME280;4912;50.836;12.958;2022-08-19T01:40:16;97136.44;;;22.69;92.93
9746;BME280;4912;50.836;12.958;2022-08-19T01:42:47;97137.78;;;22.75;92.21
9746;BME280;4912;50.836;12.958;2022-08-19T01:45:19;97146.03;;;22.89;91.84
9746;BME280;4912;50.836;12.958;2022-08-19T01:47:50;97132.06;;;22.98;90.83
9746;BME280;4912;50.836;12.958;2022-08-19T01:50:29;97140.13;;;23.09;90.03
9746;BME280;4912;50.836;12.958;2022-08-19T01:53:01;97137.84;;;23.15;89.64
9746;BME280;4912;50.836;12.958;2022-08-19T01:55:38;97138.97;;;23.20;89.34
9746;BME280;4912;50.836;12.958;2022-08-19T01:58:13;97128.78;;;23.24;88.92
9746;BME280;4912;50.836;12.958;2022-08-19T02:00:51;97121.09;;;23.25;88.67
9746;BME280;4912;50.836;12.958;2022-08-19T02:03:21;97118.47;;;23.19;88.62
9746;BME280;4912;50.836;12.958;2022-08-19T02:05:56;97120.53;;;23.19;88.42
9746;BME280;4912;50.836;12.958;2022-08-19T02:08:27;97135.06;;;23.08;89.28
9746;BME280;4912;50.836;12.958;2022-08-19T02:11:00;97129.44;;;23.00;89.88
9746;BME280;4912;50.836;12.958;2022-08-19T02:13:32;97136.59;;;22.94;90.31
9746;BME280;4912;50.836;12.958;2022-08-19T02:16:03;97154.69;;;22.83;91.55
9746;BME280;4912;50.836;12.958;2022-08-19T02:18:34;97165.78;;;22.89;90.90
9746;BME280;4912;50.836;12.958;2022-08-19T02:21:04;97161.47;;;22.80;91.64
9746;BME280;4912;50.836;12.958;2022-08-19T02:23:34;97165.22;;;22.75;92.33
9746;BME280;4912;50.836;12.958;2022-08-19T02:26:07;97162.78;;;22.79;91.98
9746;BME280;4912;50.836;12.958;2022-08-19T02:28:38;97157.34;;;22.58;93.72
9746;BME280;4912;50.836;12.958;2022-08-19T02:31:10;97162.59;;;22.62;93.37
9746;BME280;4912;50.836;12.958;2022-08-19T02:33:42;97156.00;;;22.67;93.24
9746;BME280;4912;50.836;12.958;2022-08-19T02:36:13;97149.44;;;22.72;92.83
9746;BME280;4912;50.836;12.958;2022-08-19T02:38:47;97141.91;;;22.74;92.94
9746;BME280;4912;50.836;12.958;2022-08-19T02:41:25;97139.84;;;22.75;92.86
9746;BME280;4912;50.836;12.958;2022-08-19T02:44:00;97160.34;;;22.83;92.26
9746;BME280;4912;50.836;12.958;2022-08-19T02:46:51;97176.13;;;22.63;94.26
9746;BME280;4912;50.836;12.958;2022-08-19T02:49:22;97175.75;;;22.67;94.23
9746;BME280;4912;50.836;12.958;2022-08-19T02:51:52;97188.16;;;22.71;93.76
9746;BME280;4912;50.836;12.958;2022-08-19T02:54:22;97184.81;;;22.73;93.64
9746;BME280;4912;50.836;12.958;2022-08-19T02:56:55;97177.44;;;22.70;94.34
9746;BME280;4912;50.836;12.958;2022-08-19T02:59:25;97191.56;;;22.77;93.95
9746;BME280;4912;50.836;12.958;2022-08-19T03:01:59;97198.31;;;22.82;93.87
9746;BME280;4912;50.836;12.958;2022-08-19T03:04:29;97197.19;;;22.70;95.00
9746;BME280;4912;50.836;12.958;2022-08-19T03:07:00;97200.75;;;22.70;95.57
9746;BME280;4912;50.836;12.958;2022-08-19T03:09:37;97201.72;;;22.73;95.38
9746;BME280;4912;50.836;12.958;2022-08-19T03:12:11;97203.03;;;22.72;95.05
9746;BME280;4912;50.836;12.958;2022-08-19T03:14:42;97204.31;;;22.86;95.17
9746;BME280;4912;50.836;12.958;2022-08-19T03:17:13;97195.66;;;22.99;94.45
9746;BME280;4912;50.836;12.958;2022-08-19T03:19:43;97204.13;;;23.07;93.64
9746;BME280;4912;50.836;12.958;2022-08-19T03:22:14;97201.09;;;23.05;93.64
9746;BME280;4912;50.836;12.958;2022-08-19T03:24:46;97202.81;;;23.08;93.54
9746;BME280;4912;50.836;12.958;2022-08-19T03:27:19;97193.38;;;23.05;93.33
9746;BME280;4912;50.836;12.958;2022-08-19T03:29:55;97196.03;;;23.03;93.44
9746;BME280;4912;50.836;12.958;2022-08-19T03:32:26;97199.78;;;22.98;94.07
9746;BME280;4912;50.836;12.958;2022-08-19T03:34:59;97186.84;;;22.95;93.96
9746;BME280;4912;50.836;12.958;2022-08-19T03:37:29;97187.38;;;23.01;93.53
9746;BME280;4912;50.836;12.958;2022-08-19T03:40:00;97187.19;;;22.99;94.03
9746;BME280;4912;50.836;12.958;2022-08-19T03:42:33;97190.63;;;22.90;94.45
9746;BME280;4912;50.836;12.958;2022-08-19T03:45:15;97190.41;;;22.80;95.24
9746;BME280;4912;50.836;12.958;2022-08-19T03:47:46;97198.50;;;22.61;97.41
9746;BME280;4912;50.836;12.958;2022-08-19T03:50:16;97191.94;;;22.66;97.17
9746;BME280;4912;50.836;12.958;2022-08-19T03:52:48;97191.53;;;22.70;96.95
9746;BME280;4912;50.836;12.958;2022-08-19T03:55:20;97189.09;;;22.74;96.99
9746;BME280;4912;50.836;12.958;2022-08-19T03:57:53;97199.63;;;22.66;97.54
9746;BME280;4912;50.836;12.958;2022-08-19T04:00:25;97204.31;;;22.63;97.68
9746;BME280;4912;50.836;12.958;2022-08-19T04:02:55;97199.63;;;22.66;97.83
9746;BME280;4912;50.836;12.958;2022-08-19T04:05:27;97193.63;;;22.62;98.42
9746;BME280;4912;50.836;12.958;2022-08-19T04:07:58;97199.06;;;22.60;98.40
9746;BME280;4912;50.836;12.958;2022-08-19T04:10:28;97191.16;;;22.51;99.98
9746;BME280;4912;50.836;12.958;2022-08-19T04:13:01;97190.44;;;22.50;100.00
9746;BME280;4912;50.836;12.958;2022-08-19T04:15:32;97192.31;;;22.48;100.00
9746;BME280;4912;50.836;12.958;2022-08-19T04:18:06;97193.78;;;22.33;100.00
9746;BME280;4912;50.836;12.958;2022-08-19T04:20:44;97194.56;;;22.26;100.00
9746;BME280;4912;50.836;12.958;2022-08-19T04:23:16;97189.09;;;22.28;100.00
9746;BME280;4912;50.836;12.958;2022-08-19T04:25:46;97190.81;;;22.31;100.00
9746;BME280;4912;50.836;12.958;2022-08-19T04:28:19;97191.16;;;22.35;100.00
9746;BME280;4912;50.836;12.958;2022-08-19T04:30:51;97192.84;;;22.38;100.00
9746;BME280;4912;50.836;12.958;2022-08-19T04:33:24;97184.41;;;22.38;100.00
9746;BME280;4912;50.836;12.958;2022-08-19T04:35:55;97192.13;;;22.38;100.00
9746;BME280;4912;50.836;12.958;2022-08-19T04:38:25;97194.75;;;22.36;100.00
9746;BME280;4912;50.836;12.958;2022-08-19T04:40:55;97188.94;;;22.26;100.00
9746;BME280;4912;50.836;12.958;2022-08-19T04:43:41;97188.16;;;22.18;100.00
9746;BME280;4912;50.836;12.958;2022-08-19T04:46:15;97185.13;;;22.01;100.00
9746;BME280;4912;50.836;12.958;2022-08-19T04:49:07;97178.38;;;21.96;100.00
9746;BME280;4912;50.836;12.958;2022-08-19T04:51:41;97183.78;;;21.94;100.00
9746;BME280;4912;50.836;12.958;2022-08-19T04:54:13;97191.44;;;21.79;100.00
9746;BME280;4912;50.836;12.958;2022-08-19T04:57:03;97194.44;;;21.81;100.00
9746;BME280;4912;50.836;12.958;2022-08-19T04:59:39;97196.16;;;21.84;100.00
9746;BME280;4912;50.836;12.958;2022-08-19T05:02:09;97193.72;;;21.88;100.00
9746;BME280;4912;50.836;12.958;2022-08-19T05:04:39;97185.63;;;21.84;100.00
9746;BME280;4912;50.836;12.958;2022-08-19T05:07:09;97196.91;;;21.84;100.00
9746;BME280;4912;50.836;12.958;2022-08-19T05:09:40;97190.50;;;21.84;100.00
9746;BME280;4912;50.836;12.958;2022-08-19T05:12:25;97195.59;;;21.85;100.00
9746;BME280;4912;50.836;12.958;2022-08-19T05:14:59;97195.22;;;21.89;100.00
9746;BME280;4912;50.836;12.958;2022-08-19T05:17:29;97205.97;;;21.98;100.00
9746;BME280;4912;50.836;12.958;2022-08-19T05:20:06;97205.44;;;22.07;100.00
9746;BME280;4912;50.836;12.958;2022-08-19T05:22:49;97211.41;;;22.03;100.00
9746;BME280;4912;50.836;12.958;2022-08-19T05:25:21;97213.31;;;22.09;100.00
9746;BME280;4912;50.836;12.958;2022-08-19T05:27:52;97224.19;;;22.04;100.00
9746;BME280;4912;50.836;12.958;2022-08-19T05:30:25;97220.44;;;22.02;100.00
9746;BME280;4912;50.836;12.958;2022-08-19T05:33:12;97234.13;;;21.98;100.00
9746;BME280;4912;50.836;12.958;2022-08-19T05:35:42;97228.47;;;21.90;100.00
9746;BME280;4912;50.836;12.958;2022-08-19T05:38:15;97236.50;;;21.86;100.00
9746;BME280;4912;50.836;12.958;2022-08-19T05:40:46;97243.28;;;21.83;100.00
9746;BME280;4912;50.836;12.958;2022-08-19T05:43:16;97245.91;;;21.89;100.00
9746;BME280;4912;50.836;12.958;2022-08-19T05:45:49;97253.06;;;21.90;100.00
9746;BME280;4912;50.836;12.958;2022-08-19T05:48:19;97259.31;;;21.96;100.00
9746;BME280;4912;50.836;12.958;2022-08-19T05:50:49;97262.13;;;22.03;100.00
9746;BME280;4912;50.836;12.958;2022-08-19T05:53:20;97267.03;;;22.03;100.00
9746;BME280;4912;50.836;12.958;2022-08-19T05:55:50;97273.97;;;22.02;100.00
9746;BME280;4912;50.836;12.958;2022-08-19T05:58:22;97285.41;;;22.04;100.00
9746;BME280;4912;50.836;12.958;2022-08-19T06:00:56;97292.59;;;22.13;100.00
9746;BME280;4912;50.836;12.958;2022-08-19T06:03:32;97298.59;;;22.09;100.00
9746;BME280;4912;50.836;12.958;2022-08-19T06:06:04;97309.78;;;21.94;100.00
9746;BME280;4912;50.836;12.958;2022-08-19T06:08:36;97310.47;;;21.79;100.00
9746;BME280;4912;50.836;12.958;2022-08-19T06:11:15;97311.38;;;21.74;100.00
9746;BME280;4912;50.836;12.958;2022-08-19T06:13:49;97313.50;;;21.89;100.00
9746;BME280;4912;50.836;12.958;2022-08-19T06:16:28;97322.22;;;21.98;100.00
9746;BME280;4912;50.836;12.958;2022-08-19T06:19:05;97326.00;;;22.01;100.00
9746;BME280;4912;50.836;12.958;2022-08-19T06:21:38;97331.50;;;22.14;100.00
9746;BME280;4912;50.836;12.958;2022-08-19T06:24:14;97337.84;;;22.07;100.00
9746;BME280;4912;50.836;12.958;2022-08-19T06:26:47;97345.53;;;22.07;100.00
9746;BME280;4912;50.836;12.958;2022-08-19T06:29:26;97345.81;;;21.88;100.00
9746;BME280;4912;50.836;12.958;2022-08-19T06:32:02;97343.81;;;21.96;100.00
9746;BME280;4912;50.836;12.958;2022-08-19T06:34:34;97346.06;;;21.97;100.00
9746;BME280;4912;50.836;12.958;2022-08-19T06:37:04;97341.06;;;22.11;100.00
9746;BME280;4912;50.836;12.958;2022-08-19T06:39:37;97339.53;;;22.10;100.00
9746;BME280;4912;50.836;12.958;2022-08-19T06:42:09;97355.16;;;22.11;100.00
9746;BME280;4912;50.836;12.958;2022-08-19T06:44:45;97351.66;;;21.90;100.00
9746;BME280;4912;50.836;12.958;2022-08-19T06:47:22;97356.44;;;22.02;100.00
9746;BME280;4912;50.836;12.958;2022-08-19T06:49:55;97359.41;;;21.97;100.00
9746;BME280;4912;50.836;12.958;2022-08-19T06:52:29;97355.09;;;21.96;100.00
9746;BME280;4912;50.836;12.958;2022-08-19T06:55:02;97343.66;;;22.01;100.00
9746;BME280;4912;50.836;12.958;2022-08-19T06:57:34;97354.72;;;21.99;100.00
9746;BME280;4912;50.836;12.958;2022-08-19T07:00:05;97353.78;;;22.04;100.00
9746;BME280;4912;50.836;12.958;2022-08-19T07:02:42;97347.47;;;22.19;100.00
9746;BME280;4912;50.836;12.958;2022-08-19T07:05:23;97341.84;;;22.19;100.00
9746;BME280;4912;50.836;12.958;2022-08-19T07:07:53;97355.34;;;22.21;100.00
9746;BME280;4912;50.836;12.958;2022-08-19T07:10:30;97346.00;;;22.26;100.00
9746;BME280;4912;50.836;12.958;2022-08-19T07:13:02;97339.63;;;22.40;100.00
9746;BME280;4912;50.836;12.958;2022-08-19T07:15:32;97332.16;;;22.43;100.00
9746;BME280;4912;50.836;12.958;2022-08-19T07:18:08;97345.69;;;22.52;100.00
9746;BME280;4912;50.836;12.958;2022-08-19T07:20:38;97348.53;;;22.60;100.00
9746;BME280;4912;50.836;12.958;2022-08-19T07:23:10;97347.00;;;22.59;100.00
9746;BME280;4912;50.836;12.958;2022-08-19T07:25:43;97357.56;;;22.66;100.00
9746;BME280;4912;50.836;12.958;2022-08-19T07:28:19;97357.19;;;22.69;100.00
9746;BME280;4912;50.836;12.958;2022-08-19T07:30:51;97350.78;;;22.61;100.00
9746;BME280;4912;50.836;12.958;2022-08-19T07:33:23;97354.69;;;22.51;100.00
9746;BME280;4912;50.836;12.958;2022-08-19T07:35:55;97360.53;;;22.53;100.00
9746;BME280;4912;50.836;12.958;2022-08-19T07:38:25;97374.25;;;22.49;100.00
9746;BME280;4912;50.836;12.958;2022-08-19T07:40:55;97373.84;;;22.37;100.00
9746;BME280;4912;50.836;12.958;2022-08-19T07:43:25;97376.25;;;22.33;100.00
9746;BME280;4912;50.836;12.958;2022-08-19T07:46:01;97365.38;;;22.37;100.00
9746;BME280;4912;50.836;12.958;2022-08-19T07:48:34;97367.25;;;22.34;100.00
9746;BME280;4912;50.836;12.958;2022-08-19T07:51:06;97369.34;;;22.41;100.00
9746;BME280;4912;50.836;12.958;2022-08-19T07:53:40;97369.00;;;22.53;100.00
9746;BME280;4912;50.836;12.958;2022-08-19T07:56:13;97379.75;;;22.62;100.00
9746;BME280;4912;50.836;12.958;2022-08-19T07:58:45;97384.31;;;22.72;100.00
9746;BME280;4912;50.836;12.958;2022-08-19T08:01:20;97386.41;;;22.79;100.00
9746;BME280;4912;50.836;12.958;2022-08-19T08:03:57;97393.94;;;22.84;100.00
9746;BME280;4912;50.836;12.958;2022-08-19T08:06:40;97398.97;;;22.86;100.00
9746;BME280;4912;50.836;12.958;2022-08-19T08:09:24;97399.75;;;22.79;100.00
9746;BME280;4912;50.836;12.958;2022-08-19T08:12:00;97405.56;;;22.81;100.00
9746;BME280;4912;50.836;12.958;2022-08-19T08:14:55;97404.25;;;22.82;100.00
9746;BME280;4912;50.836;12.958;2022-08-19T08:17:29;97412.13;;;22.76;100.00
9746;BME280;4912;50.836;12.958;2022-08-19T08:20:20;97406.88;;;22.80;100.00
9746;BME280;4912;50.836;12.958;2022-08-19T08:22:50;97397.31;;;22.83;99.95
9746;BME280;4912;50.836;12.958;2022-08-19T08:25:33;97395.44;;;22.93;99.70
9746;BME280;4912;50.836;12.958;2022-08-19T08:28:05;97401.06;;;22.93;98.75
9746;BME280;4912;50.836;12.958;2022-08-19T08:30:37;97402.59;;;22.94;98.94
9746;BME280;4912;50.836;12.958;2022-08-19T08:33:11;97413.13;;;23.01;98.62
9746;BME280;4912;50.836;12.958;2022-08-19T08:36:05;97405.78;;;22.98;98.49
9746;BME280;4912;50.836;12.958;2022-08-19T08:38:37;97403.72;;;22.99;99.22
9746;BME280;4912;50.836;12.958;2022-08-19T08:41:13;97404.09;;;22.95;98.88
9746;BME280;4912;50.836;12.958;2022-08-19T08:43:50;97411.03;;;22.94;98.94
9746;BME280;4912;50.836;12.958;2022-08-19T08:46:27;97410.47;;;22.88;99.63
9746;BME280;4912;50.836;12.958;2022-08-19T08:49:11;97417.81;;;22.83;99.82
9746;BME280;4912;50.836;12.958;2022-08-19T08:51:54;97425.69;;;22.77;100.00
9746;BME280;4912;50.836;12.958;2022-08-19T08:54:33;97426.44;;;22.85;100.00
9746;BME280;4912;50.836;12.958;2022-08-19T08:57:12;97425.72;;;22.93;99.81
9746;BME280;4912;50.836;12.958;2022-08-19T08:59:47;97421.03;;;22.95;98.90
9746;BME280;4912;50.836;12.958;2022-08-19T09:02:18;97427.03;;;22.99;99.22
9746;BME280;4912;50.836;12.958;2022-08-19T09:04:49;97432.72;;;23.07;98.36
9746;BME280;4912;50.836;12.958;2022-08-19T09:07:39;97411.25;;;23.04;98.20
9746;BME280;4912;50.836;12.958;2022-08-19T09:10:19;97409.56;;;23.08;98.62
9746;BME280;4912;50.836;12.958;2022-08-19T09:13:00;97398.28;;;23.16;98.44
9746;BME280;4912;50.836;12.958;2022-08-19T09:15:41;97388.28;;;23.22;97.22
9746;BME280;4912;50.836;12.958;2022-08-19T09:18:17;97392.25;;;23.35;97.08
9746;BME280;4912;50.836;12.958;2022-08-19T09:20:48;97387.75;;;23.47;95.95
9746;BME280;4912;50.836;12.958;2022-08-19T09:23:21;97395.66;;;23.56;95.32
9746;BME280;4912;50.836;12.958;2022-08-19T09:25:53;97382.09;;;23.54;94.15
9746;BME280;4912;50.836;12.958;2022-08-19T09:28:24;97392.06;;;23.63;93.50
9746;BME280;4912;50.836;12.958;2022-08-19T09:30:54;97395.06;;;23.65;93.35
9746;BME280;4912;50.836;12.958;2022-08-19T09:33:24;97407.13;;;23.65;93.31
9746;BME280;4912;50.836;12.958;2022-08-19T09:36:02;97402.59;;;23.70;92.63
9746;BME280;4912;50.836;12.958;2022-08-19T09:38:37;97410.72;;;23.66;92.14
9746;BME280;4912;50.836;12.958;2022-08-19T09:41:11;97410.88;;;23.68;92.98
9746;BME280;4912;50.836;12.958;2022-08-19T09:43:45;97408.25;;;23.85;92.20
9746;BME280;4912;50.836;12.958;2022-08-19T09:46:19;97395.00;;;24.03;90.34
9746;BME280;4912;50.836;12.958;2022-08-19T09:48:51;97396.47;;;24.12;88.68
9746;BME280;4912;50.836;12.958;2022-08-19T09:51:28;97398.41;;;24.01;89.33
9746;BME280;4912;50.836;12.958;2022-08-19T09:54:04;97380.13;;;24.02;88.98
9746;BME280;4912;50.836;12.958;2022-08-19T09:56:37;97388.19;;;24.14;88.40
9746;BME280;4912;50.836;12.958;2022-08-19T09:59:08;97382.88;;;24.25;86.86
9746;BME280;4912;50.836;12.958;2022-08-19T10:01:39;97390.53;;;24.40;86.06
9746;BME280;4912;50.836;12.958;2022-08-19T10:04:09;97397.13;;;24.50;85.00
9746;BME280;4912;50.836;12.958;2022-08-19T10:06:46;97402.78;;;24.50;84.62
9746;BME280;4912;50.836;12.958;2022-08-19T10:09:22;97393.34;;;24.47;83.33
9746;BME280;4912;50.836;12.958;2022-08-19T10:12:01;97407.66;;;24.50;83.25
9746;BME280;4912;50.836;12.958;2022-08-19T10:14:37;97418.19;;;24.57;81.35
9746;BME280;4912;50.836;12.958;2022-08-19T10:17:07;97412.50;;;24.64;80.78
9746;BME280;4912;50.836;12.958;2022-08-19T10:19:47;97414.00;;;24.65;79.25
9746;BME280;4912;50.836;12.958;2022-08-19T10:22:22;97409.69;;;24.57;79.83
9746;BME280;4912;50.836;12.958;2022-08-19T10:24:55;97402.94;;;24.52;79.93
9746;BME280;4912;50.836;12.958;2022-08-19T10:27:25;97404.53;;;24.70;79.03
9746;BME280;4912;50.836;12.958;2022-08-19T10:29:58;97405.41;;;24.80;77.79
9746;BME280;4912;50.836;12.958;2022-08-19T10:32:28;97404.09;;;24.81;78.15
9746;BME280;4912;50.836;12.958;2022-08-19T10:35:00;97415.41;;;24.81;78.95
9746;BME280;4912;50.836;12.958;2022-08-19T10:37:32;97417.09;;;24.84;78.73
9746;BME280;4912;50.836;12.958;2022-08-19T10:40:18;97414.13;;;24.75;79.13
9746;BME280;4912;50.836;12.958;2022-08-19T10:42:48;97431.16;;;24.67;79.80
9746;BME280;4912;50.836;12.958;2022-08-19T10:45:18;97429.56;;;24.41;80.23
9746;BME280;4912;50.836;12.958;2022-08-19T10:47:53;97433.78;;;24.25;80.87
9746;BME280;4912;50.836;12.958;2022-08-19T10:50:24;97452.28;;;24.19;81.84
9746;BME280;4912;50.836;12.958;2022-08-19T10:53:08;97449.06;;;23.99;83.17
9746;BME280;4912;50.836;12.958;2022-08-19T10:55:41;97450.78;;;24.02;83.48
9746;BME280;4912;50.836;12.958;2022-08-19T10:58:23;97445.50;;;23.99;83.61
9746;BME280;4912;50.836;12.958;2022-08-19T11:00:55;97436.09;;;23.81;83.61
9746;BME280;4912;50.836;12.958;2022-08-19T11:03:27;97435.38;;;23.65;85.56
9746;BME280;4912;50.836;12.958;2022-08-19T11:05:58;97432.75;;;23.52;86.87
9746;BME280;4912;50.836;12.958;2022-08-19T11:08:29;97429.38;;;23.54;87.35
9746;BME280;4912;50.836;12.958;2022-08-19T11:11:04;97428.97;;;23.57;86.53
9746;BME280;4912;50.836;12.958;2022-08-19T11:13:39;97440.63;;;23.77;86.33
9746;BME280;4912;50.836;12.958;2022-08-19T11:16:13;97451.56;;;23.88;86.11
9746;BME280;4912;50.836;12.958;2022-08-19T11:18:46;97455.13;;;23.88;85.31
9746;BME280;4912;50.836;12.958;2022-08-19T11:21:19;97457.19;;;23.95;85.22
9746;BME280;4912;50.836;12.958;2022-08-19T11:23:52;97456.09;;;23.83;85.52
9746;BME280;4912;50.836;12.958;2022-08-19T11:26:27;97457.97;;;23.73;86.31
9746;BME280;4912;50.836;12.958;2022-08-19T11:28:59;97447.63;;;23.60;87.21
9746;BME280;4912;50.836;12.958;2022-08-19T11:31:31;97454.00;;;23.46;88.61
9746;BME280;4912;50.836;12.958;2022-08-19T11:34:08;97456.25;;;23.24;90.42
9746;BME280;4912;50.836;12.958;2022-08-19T11:36:41;97455.47;;;23.16;90.82
9746;BME280;4912;50.836;12.958;2022-08-19T11:39:15;97460.16;;;23.06;91.87
9746;BME280;4912;50.836;12.958;2022-08-19T11:41:49;97453.38;;;23.09;91.99
9746;BME280;4912;50.836;12.958;2022-08-19T11:44:19;97451.69;;;22.99;93.35
9746;BME280;4912;50.836;12.958;2022-08-19T11:46:50;97459.00;;;22.94;93.70
9746;BME280;4912;50.836;12.958;2022-08-19T11:49:20;97451.13;;;23.00;94.47
9746;BME280;4912;50.836;12.958;2022-08-19T11:51:50;97447.16;;;23.03;93.61
9746;BME280;4912;50.836;12.958;2022-08-19T11:54:20;97447.00;;;23.01;93.21
9746;BME280;4912;50.836;12.958;2022-08-19T11:56:53;97444.75;;;23.07;93.09
9746;BME280;4912;50.836;12.958;2022-08-19T11:59:24;97441.38;;;23.16;92.74
9746;BME280;4912;50.836;12.958;2022-08-19T12:01:55;97453.38;;;23.09;91.70
9746;BME280;4912;50.836;12.958;2022-08-19T12:04:25;97457.31;;;22.91;93.19
9746;BME280;4912;50.836;12.958;2022-08-19T12:06:55;97466.50;;;22.76;93.99
9746;BME280;4912;50.836;12.958;2022-08-19T12:09:26;97479.63;;;22.74;94.57
9746;BME280;4912;50.836;12.958;2022-08-19T12:11:59;97483.34;;;22.69;95.30
9746;BME280;4912;50.836;12.958;2022-08-19T12:14:29;97473.19;;;22.66;95.25
9746;BME280;4912;50.836;12.958;2022-08-19T12:16:59;97482.59;;;22.61;95.44
9746;BME280;4912;50.836;12.958;2022-08-19T12:19:32;97490.03;;;22.51;96.90
9746;BME280;4912;50.836;12.958;2022-08-19T12:22:03;97479.56;;;22.59;96.39
9746;BME280;4912;50.836;12.958;2022-08-19T12:24:34;97478.25;;;22.60;96.16
9746;BME280;4912;50.836;12.958;2022-08-19T12:27:07;97485.00;;;22.57;96.12
9746;BME280;4912;50.836;12.958;2022-08-19T12:29:39;97492.09;;;22.42;97.40
9746;BME280;4912;50.836;12.958;2022-08-19T12:32:09;97493.06;;;22.53;96.79
9746;BME280;4912;50.836;12.958;2022-08-19T12:34:39;97494.56;;;22.54;96.70
9746;BME280;4912;50.836;12.958;2022-08-19T12:37:09;97502.84;;;22.52;96.45
9746;BME280;4912;50.836;12.958;2022-08-19T12:39:41;97502.06;;;22.51;96.51
9746;BME280;4912;50.836;12.958;2022-08-19T12:42:15;97501.25;;;22.35;97.07
9746;BME280;4912;50.836;12.958;2022-08-19T12:44:46;97503.88;;;22.33;97.34
9746;BME280;4912;50.836;12.958;2022-08-19T12:47:16;97498.97;;;22.26;97.47
9746;BME280;4912;50.836;12.958;2022-08-19T12:49:48;97505.09;;;22.17;98.28
9746;BME280;4912;50.836;12.958;2022-08-19T12:52:23;97500.00;;;22.16;98.10
9746;BME280;4912;50.836;12.958;2022-08-19T12:54:55;97511.25;;;22.08;98.65
9746;BME280;4912;50.836;12.958;2022-08-19T12:57:29;97506.38;;;22.09;98.82
9746;BME280;4912;50.836;12.958;2022-08-19T13:00:03;97502.38;;;22.04;98.50
9746;BME280;4912;50.836;12.958;2022-08-19T13:02:37;97485.63;;;21.98;98.89
9746;BME280;4912;50.836;12.958;2022-08-19T13:05:10;97487.69;;;21.98;99.77
9746;BME280;4912;50.836;12.958;2022-08-19T13:07:42;97487.19;;;22.07;99.08
9746;BME280;4912;50.836;12.958;2022-08-19T13:10:19;97483.47;;;22.12;98.40
9746;BME280;4912;50.836;12.958;2022-08-19T13:12:52;97487.09;;;22.20;97.63
9746;BME280;4912;50.836;12.958;2022-08-19T13:15:23;97483.16;;;22.23;97.23
9746;BME280;4912;50.836;12.958;2022-08-19T13:17:55;97485.75;;;22.21;96.74
9746;BME280;4912;50.836;12.958;2022-08-19T13:20:25;97482.53;;;22.17;96.98
9746;BME280;4912;50.836;12.958;2022-08-19T13:22:55;97492.91;;;22.22;96.73
9746;BME280;4912;50.836;12.958;2022-08-19T13:25:25;97489.00;;;22.25;96.49
9746;BME280;4912;50.836;12.958;2022-08-19T13:27:58;97495.53;;;22.20;96.70
9746;BME280;4912;50.836;12.958;2022-08-19T13:30:28;97494.25;;;22.29;96.08
9746;BME280;4912;50.836;12.958;2022-08-19T13:33:11;97493.00;;;22.37;95.80
9746;BME280;4912;50.836;12.958;2022-08-19T13:35:43;97498.47;;;22.43;94.25
9746;BME280;4912;50.836;12.958;2022-08-19T13:38:18;97499.84;;;22.50;93.42
9746;BME280;4912;50.836;12.958;2022-08-19T13:40:50;97488.38;;;22.55;92.79